Time;durP1;ratioP1;P1;durP2;ratioP2;P2;SDS_P1;SDS_P2;PMS_P1;PMS_P2;Temp;Humidity;BMP_temperature;BMP_pressure;BME280_temperature;BME280_humidity;BME280_pressure;Samples;Min_cycle;Max_cycle;Signal;HPM_P1;HPM_P2
2022/03/04 00:02:32;;;;;;;52.33;22.58;;;;;;;2.24;100.00;99522.19;4951754;29;20121;-62
2022/03/04 00:05:16;;;;;;;57.80;24.02;;;;;;;1.99;100.00;99503.66;4952632;29;20077;-53
2022/03/04 00:08:01;;;;;;;55.72;26.25;;;;;;;2.07;100.00;99528.13;4936203;29;20046;-54
2022/03/04 00:10:46;;;;;;;66.03;27.85;;;;;;;2.11;100.00;99533.41;4952843;29;20062;-54
2022/03/04 00:13:32;;;;;;;62.20;28.13;;;;;;;1.98;100.00;99517.59;4923882;29;20058;-53
2022/03/04 00:16:17;;;;;;;66.05;26.23;;;;;;;2.02;100.00;99522.84;4952691;29;20126;-54
2022/03/04 00:19:08;;;;;;;60.40;26.55;;;;;;;2.07;100.00;99526.41;4952632;29;20507;-54
2022/03/04 00:21:53;;;;;;;60.95;27.33;;;;;;;1.65;100.00;99471.06;4937134;29;20066;-51
2022/03/04 00:24:38;;;;;;;55.30;25.60;;;;;;;1.98;100.00;99513.22;4925072;29;20458;-56
2022/03/04 00:27:23;;;;;;;56.78;23.77;;;;;;;1.99;100.00;99519.31;4951752;29;20118;-54
2022/03/04 00:30:08;;;;;;;51.35;23.35;;;;;;;1.95;100.00;99520.16;4952594;29;20082;-54
2022/03/04 00:32:53;;;;;;;47.13;22.95;;;;;;;2.05;100.00;99508.94;4937899;29;20127;-56
2022/03/04 00:35:37;;;;;;;45.05;20.75;;;;;;;2.07;100.00;99501.97;4951915;29;20146;-62
2022/03/04 00:38:22;;;;;;;41.15;16.98;;;;;;;1.99;100.00;99508.88;4952125;29;20046;-53
2022/03/04 00:41:06;;;;;;;43.08;18.70;;;;;;;2.06;100.00;99514.16;4935582;29;20101;-53
2022/03/04 00:43:52;;;;;;;45.25;18.40;;;;;;;2.11;100.00;99517.72;4952248;29;20454;-54
2022/03/04 00:46:37;;;;;;;39.15;18.10;;;;;;;2.11;100.00;99506.38;4949893;28;20074;-54
2022/03/04 00:49:22;;;;;;;36.50;17.23;;;;;;;2.08;100.00;99488.03;4924196;29;20168;-57
2022/03/04 00:52:06;;;;;;;41.97;17.63;;;;;;;2.18;100.00;99502.94;4951899;29;20046;-53
2022/03/04 00:54:51;;;;;;;40.38;16.80;;;;;;;2.19;100.00;99500.34;4937243;29;20050;-54
2022/03/04 00:57:36;;;;;;;39.75;17.95;;;;;;;2.09;100.00;99508.97;4951945;29;20062;-53
2022/03/04 01:00:20;;;;;;;37.22;17.15;;;;;;;1.59;100.00;99444.91;4935400;29;20093;-60
2022/03/04 01:03:08;;;;;;;34.75;15.30;;;;;;;1.88;100.00;99500.94;4937711;29;20058;-55
2022/03/04 01:05:53;;;;;;;30.35;14.82;;;;;;;1.82;100.00;99493.00;4935873;29;20523;-56
2022/03/04 01:08:38;;;;;;;32.33;14.52;;;;;;;1.77;100.00;99494.72;4951662;29;20082;-57
2022/03/04 01:11:22;;;;;;;31.92;14.32;;;;;;;1.79;100.00;99492.13;4951691;29;20051;-55
2022/03/04 01:14:08;;;;;;;35.07;14.50;;;;;;;1.08;100.00;99425.16;4951229;29;20050;-60
2022/03/04 01:16:52;;;;;;;29.52;13.93;;;;;;;1.30;100.00;99479.38;4953753;28;20377;-55
2022/03/04 01:19:36;;;;;;;34.95;15.00;;;;;;;1.13;100.00;99440.00;4949326;29;20050;-52
2022/03/04 01:22:21;;;;;;;32.97;15.27;;;;;;;1.23;100.00;99451.44;4936754;29;20050;-54
2022/03/04 01:25:07;;;;;;;34.38;15.05;;;;;;;1.33;100.00;99471.56;4949788;29;20101;-51
2022/03/04 01:27:51;;;;;;;25.90;12.82;;;;;;;1.18;100.00;99469.66;4951583;29;20058;-53
2022/03/04 01:30:35;;;;;;;27.30;13.40;;;;;;;1.09;100.00;99453.88;4951521;29;20050;-54
2022/03/04 01:33:20;;;;;;;33.08;14.45;;;;;;;1.19;100.00;99479.22;4951221;29;20047;-53
2022/03/04 01:36:05;;;;;;;29.80;13.70;;;;;;;1.17;100.00;99467.03;4951271;29;20050;-55
2022/03/04 01:38:49;;;;;;;28.55;13.25;;;;;;;0.97;100.00;99442.41;4949296;29;20452;-58
2022/03/04 01:41:33;;;;;;;24.90;11.90;;;;;;;1.12;100.00;99476.53;4936704;29;20506;-56
2022/03/04 01:44:18;;;;;;;32.22;12.73;;;;;;;1.06;100.00;99474.72;4949432;28;20403;-55
2022/03/04 01:47:03;;;;;;;27.48;12.35;;;;;;;0.69;100.00;99419.44;4936358;29;20096;-54
2022/03/04 01:49:47;;;;;;;24.73;11.82;;;;;;;1.00;100.00;99479.88;4936174;29;20102;-52
2022/03/04 01:52:32;;;;;;;;;;;;;;;0.80;100.00;99483.97;4951468;29;20466;-57
2022/03/04 01:55:17;;;;;;;21.60;10.73;;;;;;;0.71;100.00;99477.72;4953086;28;20398;-55
2022/03/04 01:58:01;;;;;;;22.30;10.55;;;;;;;0.69;100.00;99476.81;4949173;28;20144;-57
2022/03/04 02:00:46;;;;;;;26.10;10.98;;;;;;;0.59;100.00;99460.16;4936350;29;20510;-54
2022/03/04 02:03:30;;;;;;;25.67;11.07;;;;;;;0.68;100.00;99473.34;4948515;29;20089;-55
2022/03/04 02:06:16;;;;;;;21.52;10.65;;;;;;;0.72;100.00;99463.81;4950652;29;20129;-55
2022/03/04 02:09:01;;;;;;;20.00;9.77;;;;;;;0.95;100.00;99481.53;4922423;29;20070;-54
2022/03/04 02:11:48;;;;;;;;;;;;;;;0.99;100.00;99493.75;4923147;29;20034;-54
2022/03/04 02:14:33;;;;;;;19.45;8.75;;;;;;;0.59;100.00;99451.47;4922990;29;20024;-52
2022/03/04 02:17:17;;;;;;;17.25;8.77;;;;;;;0.80;100.00;99489.19;4934775;29;20567;-60
2022/03/04 02:20:05;;;;;;;21.95;9.48;;;;;;;0.72;100.00;99476.88;4951827;29;20395;-52
2022/03/04 02:22:51;;;;;;;20.23;9.57;;;;;;;0.73;100.00;99494.28;4950949;29;20489;-54
2022/03/04 02:25:36;;;;;;;19.15;9.80;;;;;;;0.73;100.00;99494.28;4950486;29;20045;-55
2022/03/04 02:28:21;;;;;;;19.13;8.80;;;;;;;0.66;100.00;99482.03;4950799;29;20395;-53
2022/03/04 02:31:06;;;;;;;15.23;7.93;;;;;;;0.87;100.00;99497.97;4922285;29;20094;-60
2022/03/04 02:33:51;;;;;;;16.83;7.82;;;;;;;0.56;100.00;99457.53;4935721;29;22006;-52
2022/03/04 02:36:37;;;;;;;17.70;8.00;;;;;;;0.87;100.00;99495.34;4920311;29;20098;-56
2022/03/04 02:39:22;;;;;;;17.90;7.53;;;;;;;0.94;100.00;99500.66;4935949;29;20093;-58
2022/03/04 02:42:06;;;;;;;22.05;8.52;;;;;;;0.96;100.00;99493.75;4949463;29;20142;-52
2022/03/04 02:44:51;;;;;;;16.45;8.38;;;;;;;0.81;100.00;99484.81;4950816;29;20058;-56
2022/03/04 02:47:37;;;;;;;14.73;8.00;;;;;;;0.46;100.00;99445.19;4935879;29;20372;-56
2022/03/04 02:50:21;;;;;;;13.32;7.30;;;;;;;0.61;100.00;99449.75;4935308;29;20070;-61
2022/03/04 02:53:06;;;;;;;15.95;8.38;;;;;;;0.83;100.00;99490.94;4950280;29;20054;-55
2022/03/04 02:55:50;;;;;;;20.20;8.45;;;;;;;0.80;100.00;99475.25;4948308;29;20045;-52
2022/03/04 02:58:35;;;;;;;16.63;9.80;;;;;;;0.97;100.00;99494.59;4950311;29;20423;-57
2022/03/04 03:01:19;;;;;;;22.58;11.10;;;;;;;0.90;100.00;99474.53;4948837;29;20050;-54
2022/03/04 03:04:04;;;;;;;20.02;10.15;;;;;;;1.11;100.00;99500.91;4935581;29;20134;-53
2022/03/04 03:06:50;;;;;;;20.13;10.43;;;;;;;1.12;100.00;99500.91;4950404;29;20296;-57
2022/03/04 03:09:34;;;;;;;21.02;10.45;;;;;;;0.99;100.00;99482.47;4935573;28;20058;-58
2022/03/04 03:12:19;;;;;;;21.02;8.95;;;;;;;0.96;100.00;99492.84;4953519;29;20534;-61
2022/03/04 03:15:04;;;;;;;17.10;8.38;;;;;;;0.92;100.00;99496.28;4937310;29;20037;-62
2022/03/04 03:17:49;;;;;;;14.82;7.72;;;;;;;0.77;100.00;99494.34;4939193;29;20046;-59
2022/03/04 03:20:34;;;;;;;15.52;7.70;;;;;;;0.74;100.00;99494.28;4937711;29;20518;-58
2022/03/04 03:23:18;;;;;;;17.52;8.00;;;;;;;0.35;100.00;99449.38;4939602;29;20118;-54
2022/03/04 03:26:03;;;;;;;14.30;7.88;;;;;;;0.63;100.00;99503.69;4929028;29;20090;-57
2022/03/04 03:28:47;;;;;;;16.00;8.05;;;;;;;0.41;100.00;99466.84;4940365;29;20045;-52
2022/03/04 03:31:31;;;;;;;15.50;7.85;;;;;;;0.56;100.00;99499.25;4954850;29;20088;-58
2022/03/04 03:34:16;;;;;;;17.05;8.32;;;;;;;0.48;100.00;99497.38;4938556;29;20058;-60
2022/03/04 03:37:01;;;;;;;18.75;8.45;;;;;;;0.35;100.00;99495.44;4940047;29;20399;-54
2022/03/04 03:39:45;;;;;;;15.95;8.35;;;;;;;0.26;100.00;99503.09;4925648;29;20078;-54
2022/03/04 03:42:30;;;;;;;16.23;7.40;;;;;;;0.34;100.00;99498.88;4939658;29;20704;-54
2022/03/04 03:45:14;;;;;;;16.15;7.43;;;;;;;0.04;100.00;99502.75;4938788;29;20085;-58
2022/03/04 03:47:59;;;;;;;12.57;6.72;;;;;;;-0.05;100.00;99489.56;4953544;29;20042;-56
2022/03/04 03:50:43;;;;;;;17.15;7.40;;;;;;;-0.02;100.00;99504.38;4953021;29;20607;-57
2022/03/04 03:53:28;;;;;;;17.40;7.32;;;;;;;0.00;100.00;99500.09;4937720;29;20069;-63
2022/03/04 03:56:12;;;;;;;17.30;7.38;;;;;;;0.03;100.00;99505.31;4953127;29;20038;-58
2022/03/04 03:58:57;;;;;;;14.40;6.85;;;;;;;-0.04;100.00;99503.47;4951098;29;20054;-60
2022/03/04 04:01:41;;;;;;;18.05;7.80;;;;;;;-0.02;100.00;99507.88;4953381;29;20554;-56
2022/03/04 04:04:26;;;;;;;16.40;8.02;;;;;;;-0.24;100.00;99465.75;4952056;29;20102;-57
2022/03/04 04:07:12;;;;;;;15.80;7.75;;;;;;;-0.14;100.00;99514.59;4953176;29;20050;-54
2022/03/04 04:09:56;;;;;;;16.80;7.15;;;;;;;-0.28;100.00;99495.22;4925076;29;20443;-55
2022/03/04 04:12:41;;;;;;;19.27;8.55;;;;;;;-0.40;100.00;99502.78;4952328;29;20541;-63
2022/03/04 04:15:25;;;;;;;18.85;8.65;;;;;;;-0.52;100.00;99490.44;4952741;29;20074;-61
2022/03/04 04:18:10;;;;;;;23.88;9.70;;;;;;;-0.59;100.00;99517.19;4950719;29;20071;-57
2022/03/04 04:20:54;;;;;;;26.27;9.05;;;;;;;-0.46;100.00;99521.81;4954811;28;20443;-53
2022/03/04 04:23:39;;;;;;;19.13;9.30;;;;;;;-0.46;100.00;99533.94;4955465;29;20050;-55
2022/03/04 04:26:24;;;;;;;20.65;9.75;;;;;;;-0.62;100.00;99521.47;4957598;29;20192;-54
2022/03/04 04:29:08;;;;;;;21.50;9.32;;;;;;;-0.40;100.00;99541.84;4953609;29;20324;-62
2022/03/04 04:31:53;;;;;;;23.42;8.85;;;;;;;-0.46;100.00;99533.94;4953071;29;20054;-53
2022/03/04 04:34:37;;;;;;;24.13;9.45;;;;;;;-0.46;100.00;99537.44;4952353;29;20090;-52
2022/03/04 04:37:22;;;;;;;20.58;8.88;;;;;;;-0.71;100.00;99510.88;4950000;29;20046;-60
2022/03/04 04:40:07;;;;;;;24.10;10.35;;;;;;;-0.61;100.00;99541.44;4952487;29;20094;-53
2022/03/04 04:42:52;;;;;;;23.80;9.57;;;;;;;-0.54;100.00;99541.63;4935902;29;20062;-55
2022/03/04 04:45:36;;;;;;;20.67;9.55;;;;;;;-0.46;100.00;99560.88;4952495;29;20395;-55
2022/03/04 04:48:20;;;;;;;27.63;9.13;;;;;;;-0.51;100.00;99536.44;4952104;29;20155;-53
2022/03/04 04:51:05;;;;;;;23.25;9.80;;;;;;;-0.37;100.00;99558.44;4951997;29;20086;-52
2022/03/04 04:53:50;;;;;;;20.88;9.85;;;;;;;-0.29;100.00;99558.56;4937428;29;20078;-62
2022/03/04 04:56:36;;;;;;;26.38;9.73;;;;;;;-0.59;100.00;99530.22;4935453;29;20054;-58
2022/03/04 04:59:20;;;;;;;24.45;10.50;;;;;;;-0.38;100.00;99580.13;4951849;29;20042;-62
2022/03/04 05:02:05;;;;;;;21.13;9.50;;;;;;;-0.50;100.00;99571.19;4949668;29;20499;-56
2022/03/04 05:04:49;;;;;;;23.15;10.13;;;;;;;-0.28;100.00;99592.47;4937225;29;20058;-58
2022/03/04 05:07:34;;;;;;;19.83;9.25;;;;;;;-0.25;100.00;99589.03;4951441;29;20106;-56
2022/03/04 05:10:18;;;;;;;24.55;9.68;;;;;;;-0.21;100.00;99594.34;4951713;29;20446;-56
2022/03/04 05:13:03;;;;;;;19.50;9.32;;;;;;;-0.30;100.00;99588.09;4937272;29;20090;-56
2022/03/04 05:15:48;;;;;;;19.60;9.15;;;;;;;-0.17;100.00;99595.28;4949506;29;20046;-60
2022/03/04 05:18:32;;;;;;;23.15;10.32;;;;;;;-0.41;100.00;99555.72;4950401;29;20086;-57
2022/03/04 05:21:17;;;;;;;21.02;9.20;;;;;;;-0.27;100.00;99593.38;4934791;29;20058;-53
2022/03/04 05:24:02;;;;;;;24.35;9.50;;;;;;;-0.77;100.00;99519.44;4951074;29;20057;-56
2022/03/04 05:26:47;;;;;;;24.88;11.40;;;;;;;-0.19;100.00;99610.88;4922995;29;20097;-55
2022/03/04 05:29:31;;;;;;;25.23;10.57;;;;;;;-0.13;100.00;99595.38;4938482;29;20502;-58
2022/03/04 05:32:15;;;;;;;20.95;10.13;;;;;;;0.04;100.00;99612.19;4935012;28;20054;-56
2022/03/04 05:35:00;;;;;;;26.95;10.90;;;;;;;-0.06;100.00;99612.00;4934213;29;20527;-60
2022/03/04 05:37:44;;;;;;;27.13;11.40;;;;;;;-0.14;100.00;99564.97;4950289;29;20057;-54
2022/03/04 05:40:29;;;;;;;26.00;11.05;;;;;;;0.08;100.00;99615.75;4934652;29;20357;-55
2022/03/04 05:43:13;;;;;;;20.60;10.55;;;;;;;0.07;100.00;99623.56;4951085;29;20066;-57
2022/03/04 05:45:58;;;;;;;22.65;10.93;;;;;;;0.13;100.00;99621.03;4949312;29;20403;-54
2022/03/04 05:48:42;;;;;;;21.08;10.45;;;;;;;0.37;100.00;99624.97;4950977;29;20483;-57
2022/03/04 05:51:27;;;;;;;29.38;10.85;;;;;;;0.25;100.00;99603.91;4950577;29;20393;-57
2022/03/04 05:54:11;;;;;;;23.63;11.52;;;;;;;0.05;100.00;99598.31;4936133;29;20138;-55
2022/03/04 05:56:56;;;;;;;22.45;11.48;;;;;;;0.17;100.00;99620.25;4936343;29;20543;-54
2022/03/04 05:59:41;;;;;;;27.98;12.13;;;;;;;-0.24;100.00;99609.03;4948990;29;20400;-59
2022/03/04 06:02:27;;;;;;;28.33;12.15;;;;;;;-0.22;100.00;99615.16;4950882;29;20050;-56
2022/03/04 06:05:12;;;;;;;25.20;11.63;;;;;;;-0.20;100.00;99639.50;4934647;29;20089;-58
2022/03/04 06:07:56;;;;;;;34.40;11.25;;;;;;;-0.05;100.00;99637.22;4951288;29;20098;-54
2022/03/04 06:10:40;;;;;;;28.98;11.50;;;;;;;0.14;100.00;99644.53;4950319;29;20715;-62
2022/03/04 06:13:25;;;;;;;25.55;12.82;;;;;;;0.19;100.00;99644.63;4950455;29;20089;-60
2022/03/04 06:16:10;;;;;;;21.23;11.77;;;;;;;0.34;100.00;99640.56;4950397;29;20364;-56
2022/03/04 06:18:54;;;;;;;24.10;11.68;;;;;;;0.37;100.00;99644.97;4950311;29;20143;-59
2022/03/04 06:21:39;;;;;;;20.52;10.77;;;;;;;0.39;100.00;99638.91;4936907;29;20062;-55
2022/03/04 06:24:24;;;;;;;22.27;11.02;;;;;;;0.36;100.00;99654.53;4949377;29;20057;-54
2022/03/04 06:27:08;;;;;;;22.50;11.07;;;;;;;0.23;100.00;99656.88;4936724;29;20089;-58
2022/03/04 06:29:53;;;;;;;24.85;11.30;;;;;;;0.16;100.00;99647.19;4936528;29;20599;-57
2022/03/04 06:32:37;;;;;;;20.33;10.47;;;;;;;0.19;100.00;99645.50;4948449;29;20042;-55
2022/03/04 06:35:21;;;;;;;17.70;9.73;;;;;;;-0.03;100.00;99606.88;4927165;29;20339;-55
2022/03/04 06:38:06;;;;;;;21.40;10.90;;;;;;;0.08;100.00;99638.34;4931041;29;20049;-59
2022/03/04 06:40:51;;;;;;;23.45;11.40;;;;;;;0.17;100.00;99644.59;4935528;29;20037;-55
2022/03/04 06:43:38;;;;;;;24.88;11.30;;;;;;;0.19;100.00;99647.25;4932102;29;20491;-56
2022/03/04 06:46:23;;;;;;;25.73;12.13;;;;;;;0.15;100.00;99643.69;4948788;29;20395;-54
2022/03/04 06:49:10;;;;;;;21.25;11.20;;;;;;;0.18;100.00;99651.56;4938278;29;20043;-53
2022/03/04 06:51:55;;;;;;;22.88;11.70;;;;;;;0.11;100.00;99649.69;4912784;29;20392;-54
2022/03/04 06:54:39;;;;;;;21.40;10.98;;;;;;;0.09;100.00;99649.66;4951936;29;20094;-55
2022/03/04 06:57:24;;;;;;;18.73;10.88;;;;;;;0.27;100.00;99651.72;4937629;29;20054;-63
2022/03/04 07:00:11;;;;;;;21.58;10.73;;;;;;;0.39;100.00;99656.31;4929853;29;20519;-62
2022/03/04 07:02:56;;;;;;;24.45;11.48;;;;;;;0.61;100.00;99643.66;4932608;29;20459;-56
2022/03/04 07:05:40;;;;;;;19.15;10.80;;;;;;;0.54;100.00;99644.41;4906629;29;20071;-55
2022/03/04 07:08:25;;;;;;;24.00;12.10;;;;;;;0.55;100.00;99650.50;4933549;29;20050;-57
2022/03/04 07:11:09;;;;;;;19.88;11.43;;;;;;;0.66;100.00;99649.81;4934313;29;20090;-56
2022/03/04 07:13:54;;;;;;;19.80;11.48;;;;;;;0.82;100.00;99653.59;4936582;29;20053;-55
2022/03/04 07:16:38;;;;;;;24.73;11.73;;;;;;;0.78;100.00;99649.19;4939327;29;20038;-61
2022/03/04 07:19:23;;;;;;;19.55;10.15;;;;;;;0.95;100.00;99645.09;4951705;29;20547;-56
2022/03/04 07:22:07;;;;;;;21.27;11.13;;;;;;;1.05;100.00;99660.03;4951565;29;20073;-56
2022/03/04 07:24:52;;;;;;;22.08;10.77;;;;;;;0.74;100.00;99663.88;4954795;28;20439;-56
2022/03/04 07:27:37;;;;;;;20.08;10.35;;;;;;;0.81;100.00;99646.59;4952977;29;20058;-58
2022/03/04 07:30:23;;;;;;;21.08;10.35;;;;;;;0.95;100.00;99645.09;4925736;29;20094;-56
2022/03/04 07:33:09;;;;;;;20.23;10.73;;;;;;;0.44;100.00;99618.13;4951777;29;20507;-57
2022/03/04 07:35:55;;;;;;;20.52;11.23;;;;;;;0.77;100.00;99623.91;4951084;29;20078;-60
2022/03/04 07:38:43;;;;;;;21.80;11.55;;;;;;;1.30;100.00;99662.19;4950988;29;20377;-58
2022/03/04 07:41:29;;;;;;;21.38;10.40;;;;;;;1.25;100.00;99661.22;4952888;29;20427;-55
2022/03/04 07:44:14;;;;;;;20.80;11.05;;;;;;;1.18;100.00;99654.16;4938507;29;20042;-57
2022/03/04 07:46:59;;;;;;;21.48;10.32;;;;;;;1.57;100.00;99665.16;4937629;29;20129;-57
2022/03/04 07:49:44;;;;;;;16.70;9.95;;;;;;;1.81;100.00;99662.88;4938146;29;20082;-60
2022/03/04 07:52:31;;;;;;;27.20;11.63;;;;;;;1.80;100.00;99662.00;4952968;29;20046;-56
2022/03/04 07:55:18;;;;;;;19.75;10.38;;;;;;;1.52;100.00;99643.34;4945545;29;20141;-56
2022/03/04 07:58:03;;;;;;;23.38;10.60;;;;;;;1.80;100.00;99663.75;4944650;29;20050;-55
2022/03/04 08:00:48;;;;;;;21.95;10.15;;;;;;;1.92;100.00;99667.41;4949551;29;20042;-56
2022/03/04 08:03:33;;;;;;;21.15;10.70;;;;;;;1.86;100.00;99669.91;4950362;29;20049;-55
2022/03/04 08:06:18;;;;;;;18.85;9.40;;;;;;;1.99;100.00;99674.47;4953084;29;20558;-56
2022/03/04 08:09:03;;;;;;;21.05;10.77;;;;;;;2.01;100.00;99670.13;4951396;29;20510;-59
2022/03/04 08:11:49;;;;;;;17.67;10.40;;;;;;;2.03;100.00;99673.66;4953046;29;20046;-59
2022/03/04 08:14:34;;;;;;;15.95;8.93;;;;;;;2.12;100.00;99665.00;4936287;29;20298;-63
2022/03/04 08:17:21;;;;;;;17.70;9.35;;;;;;;2.21;100.00;99671.22;4953688;29;20114;-61
2022/03/04 08:20:15;;;;;;;16.70;8.50;;;;;;;2.37;100.00;99652.22;4952831;29;20498;-59
2022/03/04 08:23:02;;;;;;;19.27;9.02;;;;;;;2.55;100.00;99665.50;4936208;29;20089;-63
2022/03/04 08:25:49;;;;;;;13.25;8.55;;;;;;;2.69;100.00;99650.78;4952408;29;20090;-66
2022/03/04 08:28:34;;;;;;;13.38;7.97;;;;;;;2.71;100.00;99624.63;4937844;29;20453;-62
2022/03/04 08:31:18;;;;;;;21.50;8.77;;;;;;;2.89;100.00;99661.47;4937460;29;20090;-57
2022/03/04 08:34:05;;;;;;;16.35;9.02;;;;;;;3.01;100.00;99659.81;4952872;29;20045;-59
2022/03/04 08:36:52;;;;;;;21.33;8.65;;;;;;;3.10;100.00;99659.00;4936860;29;20074;-62
2022/03/04 08:39:37;;;;;;;13.65;8.10;;;;;;;3.15;100.00;99657.28;4938491;29;20432;-57
2022/03/04 08:42:22;;;;;;;12.75;7.13;;;;;;;3.18;100.00;99663.44;4950808;29;20507;-55
2022/03/04 08:45:08;;;;;;;15.82;8.15;;;;;;;3.19;100.00;99652.09;4951974;29;20546;-54
2022/03/04 08:47:53;;;;;;;19.00;8.25;;;;;;;3.17;100.00;99632.00;4937133;29;20043;-56
2022/03/04 08:50:37;;;;;;;16.33;7.88;;;;;;;3.56;100.00;99655.84;4924182;29;20050;-54
2022/03/04 08:53:22;;;;;;;22.40;8.13;;;;;;;3.57;100.00;99657.59;4937511;29;20054;-57
2022/03/04 08:56:06;;;;;;;20.15;8.25;;;;;;;3.49;100.00;99669.78;4948880;29;20581;-59
2022/03/04 08:58:51;;;;;;;15.98;7.57;;;;;;;3.36;100.00;99629.50;4924424;29;20439;-61
2022/03/04 09:01:35;;;;;;;12.37;7.60;;;;;;;3.67;100.00;99665.50;4949863;29;20503;-57
2022/03/04 09:04:19;;;;;;;19.42;8.15;;;;;;;3.63;100.00;99668.97;4937981;29;20286;-58
2022/03/04 09:07:06;;;;;;;14.32;8.50;;;;;;;3.58;100.00;99652.34;4936788;28;20042;-57
2022/03/04 09:09:51;;;;;;;16.83;8.10;;;;;;;3.68;100.00;99664.63;4953720;29;20403;-55
2022/03/04 09:12:36;;;;;;;17.48;8.93;;;;;;;3.54;100.00;99650.59;4938292;29;20045;-58
2022/03/04 09:15:20;;;;;;;15.10;8.70;;;;;;;3.68;100.00;99663.78;4950523;29;20493;-61
2022/03/04 09:18:05;;;;;;;10.98;7.47;;;;;;;3.78;100.00;99662.94;4937729;29;20178;-54
2022/03/04 09:20:50;;;;;;;16.13;8.32;;;;;;;3.58;100.00;99620.91;4935479;29;20042;-54
2022/03/04 09:23:35;;;;;;;14.48;7.75;;;;;;;3.87;100.00;99652.47;4937342;29;20050;-57
2022/03/04 09:26:19;;;;;;;14.63;6.82;;;;;;;3.91;100.00;99662.13;4937132;29;20049;-55
2022/03/04 09:29:03;;;;;;;18.23;8.38;;;;;;;3.57;100.00;99661.06;4936889;29;20072;-54
2022/03/04 09:31:50;;;;;;;18.77;8.82;;;;;;;4.15;100.00;99668.34;4940324;29;20046;-54
2022/03/04 09:34:35;;;;;;;15.32;8.05;;;;;;;4.96;100.00;99660.63;4936078;29;20069;-56
2022/03/04 09:37:20;;;;;;;18.13;9.13;;;;;;;5.15;100.00;99645.78;4952373;29;20170;-53
2022/03/04 09:40:07;;;;;;;18.15;9.15;;;;;;;5.81;100.00;99660.59;4949374;29;20054;-52
2022/03/04 09:42:52;;;;;;;18.25;9.45;;;;;;;6.07;100.00;99654.34;4936428;29;20050;-57
2022/03/04 09:45:36;;;;;;;22.10;9.50;;;;;;;6.15;98.98;99652.56;4923408;29;20729;-53
2022/03/04 09:48:24;;;;;;;18.70;8.10;;;;;;;6.25;97.80;99656.03;4951113;29;20078;-55
2022/03/04 09:51:09;;;;;;;17.98;8.15;;;;;;;5.91;97.27;99626.34;4935859;29;20180;-55
2022/03/04 09:53:53;;;;;;;17.20;7.93;;;;;;;6.16;96.53;99613.94;4949713;29;20446;-55
2022/03/04 09:56:38;;;;;;;13.57;7.85;;;;;;;7.13;91.92;99646.66;4951448;29;20507;-57
2022/03/04 09:59:24;;;;;;;15.05;7.85;;;;;;;7.40;88.88;99638.53;4936026;29;20450;-54
2022/03/04 10:02:14;;;;;;;14.55;8.38;;;;;;;8.15;84.58;99651.75;4951641;29;20058;-55
2022/03/04 10:05:00;;;;;;;16.40;8.77;;;;;;;8.57;79.26;99642.41;4936389;29;20061;-57
2022/03/04 10:07:47;;;;;;;14.93;8.32;;;;;;;8.31;78.24;99649.84;4921320;29;20054;-55
2022/03/04 10:10:32;;;;;;;17.38;8.13;;;;;;;7.86;80.16;99638.03;4936365;29;20102;-54
2022/03/04 10:13:38;;;;;;;17.10;8.65;;;;;;;7.88;81.19;99640.66;4934959;29;20089;-57
2022/03/04 10:16:26;;;;;;;13.82;7.55;;;;;;;7.63;82.76;99644.41;4949197;29;20041;-57
2022/03/04 10:19:13;;;;;;;13.88;6.65;;;;;;;9.04;75.70;99630.25;4952549;28;20408;-54
2022/03/04 10:22:00;;;;;;;15.88;6.88;;;;;;;10.15;67.77;99637.03;4952024;29;20468;-56
2022/03/04 10:24:44;;;;;;;13.23;6.90;;;;;;;9.96;63.92;99631.19;4950123;29;20058;-59
2022/03/04 10:27:34;;;;;;;12.50;6.60;;;;;;;9.59;66.93;99648.69;4936413;29;20054;-55
2022/03/04 10:30:30;;;;;;;18.23;6.80;;;;;;;9.35;66.93;99606.78;4948932;29;20054;-57
2022/03/04 10:33:27;;;;;;;16.13;7.00;;;;;;;9.08;68.94;99639.00;4936393;29;20053;-54
2022/03/04 10:36:14;;;;;;;10.90;6.20;;;;;;;8.89;69.73;99624.31;4950548;29;20133;-57
2022/03/04 10:39:08;;;;;;;14.07;6.20;;;;;;;9.53;67.28;99640.84;4935520;29;20117;-56
2022/03/04 10:41:53;;;;;;;11.90;6.13;;;;;;;10.71;62.50;99645.50;4950563;29;20483;-59
2022/03/04 10:44:37;;;;;;;10.98;6.00;;;;;;;10.38;60.65;99640.97;4951860;29;20094;-57
2022/03/04 10:47:22;;;;;;;10.93;5.45;;;;;;;9.59;62.01;99604.53;4949373;29;20054;-55
2022/03/04 10:50:07;;;;;;;12.77;5.93;;;;;;;9.13;66.38;99638.03;4922027;29;20444;-54
2022/03/04 10:53:10;;;;;;;11.68;5.88;;;;;;;9.09;67.35;99638.97;4949830;29;20113;-56
2022/03/04 10:55:56;;;;;;;10.70;5.53;;;;;;;8.38;69.30;99631.22;4948093;29;20070;-58
2022/03/04 10:58:41;;;;;;;12.60;5.68;;;;;;;8.68;71.61;99637.84;4935893;29;20054;-58
2022/03/04 11:01:26;;;;;;;17.30;5.65;;;;;;;9.20;70.25;99636.13;4949674;29;20094;-53
2022/03/04 11:04:10;;;;;;;12.17;4.93;;;;;;;9.22;68.80;99635.22;4936076;29;20388;-57
2022/03/04 11:06:57;;;;;;;20.38;5.60;;;;;;;9.11;69.06;99636.31;4950926;29;20523;-57
2022/03/04 11:09:41;;;;;;;11.50;5.25;;;;;;;9.23;67.68;99631.66;4949516;29;20065;-66
2022/03/04 11:12:28;;;;;;;9.70;5.00;;;;;;;8.85;67.81;99642.00;4936165;29;20049;-57
2022/03/04 11:15:13;;;;;;;11.75;4.68;;;;;;;8.40;69.31;99602.16;4906972;29;20050;-59
2022/03/04 11:18:05;;;;;;;6.33;4.53;;;;;;;8.72;70.42;99592.88;4936835;29;20089;-55
2022/03/04 11:20:55;;;;;;;8.70;4.40;;;;;;;10.55;64.19;99619.38;4950985;29;20329;-58
2022/03/04 11:23:46;;;;;;;7.75;4.13;;;;;;;12.13;55.49;99630.34;4920671;29;20078;-58
2022/03/04 11:26:31;;;;;;;7.40;4.28;;;;;;;13.30;48.63;99633.84;4950331;29;20148;-59
2022/03/04 11:29:36;;;;;;;7.30;3.95;;;;;;;14.12;43.50;99622.00;4921930;29;20220;-57
2022/03/04 11:32:29;;;;;;;7.45;4.55;;;;;;;13.79;44.04;99618.78;4950283;28;20495;-57
2022/03/04 11:35:39;;;;;;;7.95;4.22;;;;;;;13.23;44.79;99621.63;4939132;29;20046;-59
2022/03/04 11:38:48;;;;;;;6.53;3.75;;;;;;;12.22;47.52;99619.47;4925981;29;20094;-55
2022/03/04 11:41:55;;;;;;;5.80;3.70;;;;;;;12.52;46.63;99615.91;4954374;28;20391;-56
2022/03/04 11:44:55;;;;;;;15.18;4.00;;;;;;;13.72;43.87;99613.72;4950217;29;20137;-53
2022/03/04 11:47:43;;;;;;;11.50;3.85;;;;;;;13.89;42.78;99616.66;4953306;29;20107;-56
2022/03/04 11:50:33;;;;;;;7.75;3.72;;;;;;;14.37;40.89;99625.56;4951138;29;20063;-55
2022/03/04 11:53:20;;;;;;;7.97;4.03;;;;;;;14.90;38.36;99626.16;4938894;29;20053;-54
2022/03/04 11:56:12;;;;;;;8.77;4.15;;;;;;;14.98;37.96;99632.06;4925239;29;20054;-55
2022/03/04 11:59:07;;;;;;;5.80;3.58;;;;;;;14.75;37.70;99629.44;4937522;29;20065;-55
2022/03/04 12:01:51;;;;;;;6.93;3.55;;;;;;;13.56;39.27;99626.69;4924906;29;20131;-55
2022/03/04 12:04:36;;;;;;;4.95;3.20;;;;;;;13.34;40.35;99622.16;4953359;29;20094;-58
2022/03/04 12:07:34;;;;;;;5.60;3.22;;;;;;;13.11;41.60;99616.72;4925396;29;20123;-55
2022/03/04 12:10:23;;;;;;;8.32;3.75;;;;;;;13.06;42.63;99613.34;4938583;29;20498;-58
2022/03/04 12:13:12;;;;;;;5.97;3.15;;;;;;;12.99;41.41;99612.66;4953121;29;20046;-55
2022/03/04 12:16:04;;;;;;;6.72;2.90;;;;;;;13.13;41.61;99614.84;4924142;29;20407;-57
2022/03/04 12:18:48;;;;;;;5.13;3.10;;;;;;;12.37;42.02;99605.72;4938237;29;20086;-56
2022/03/04 12:21:38;;;;;;;9.07;3.15;;;;;;;11.97;45.38;99614.88;4951274;29;20038;-58
2022/03/04 12:24:30;;;;;;;4.47;2.78;;;;;;;11.81;46.32;99614.44;4938165;29;20070;-57
2022/03/04 12:27:40;;;;;;;7.32;3.17;;;;;;;11.61;48.08;99614.13;4938677;29;20053;-55
2022/03/04 12:30:25;;;;;;;5.53;3.05;;;;;;;11.19;48.87;99612.50;4952639;29;20451;-54
2022/03/04 12:33:12;;;;;;;6.47;2.80;;;;;;;10.97;49.97;99602.47;4936232;29;20065;-55
2022/03/04 12:35:58;;;;;;;7.10;3.20;;;;;;;10.72;51.07;99607.47;4938104;29;20066;-58
2022/03/04 12:38:52;;;;;;;5.93;2.70;;;;;;;10.26;52.88;99613.84;4951676;29;20660;-57
2022/03/04 12:41:37;;;;;;;5.07;2.60;;;;;;;10.12;55.78;99607.97;4937076;29;20071;-62
2022/03/04 12:44:22;;;;;;;4.07;2.58;;;;;;;10.31;54.35;99614.59;4936950;29;20107;-59
2022/03/04 12:47:07;;;;;;;4.22;2.50;;;;;;;10.25;52.67;99519.34;4935401;29;20383;-57
2022/03/04 12:49:52;;;;;;;7.00;3.30;;;;;;;10.98;51.83;99613.06;4933291;29;20084;-59
2022/03/04 12:52:37;;;;;;;;;;;;;;;11.01;52.21;99618.28;4932006;29;20101;-56